sensor_id;sensor_type;location;lat;lon;timestamp;pressure;altitude;pressure_sealevel;temperature;humidity
21706;BME280;11014;53.076;18.208;2023-12-28T00:00:59;101453.06;;;5.11;66.89
21706;BME280;11014;53.076;18.208;2023-12-28T00:04:09;101446.38;;;5.15;66.88
21706;BME280;11014;53.076;18.208;2023-12-28T00:06:41;101434.28;;;5.04;67.07
21706;BME280;11014;53.076;18.208;2023-12-28T00:09:10;101443.09;;;5.05;67.07
21706;BME280;11014;53.076;18.208;2023-12-28T00:15:02;101449.13;;;4.99;67.11
21706;BME280;11014;53.076;18.208;2023-12-28T00:17:35;101438.81;;;4.96;66.83
21706;BME280;11014;53.076;18.208;2023-12-28T00:20:05;101430.53;;;4.91;66.98
21706;BME280;11014;53.076;18.208;2023-12-28T00:23:23;101414.91;;;4.88;67.06
21706;BME280;11014;53.076;18.208;2023-12-28T00:25:51;101423.22;;;4.85;67.03
21706;BME280;11014;53.076;18.208;2023-12-28T00:28:24;101424.06;;;4.85;67.10
21706;BME280;11014;53.076;18.208;2023-12-28T00:30:57;101409.28;;;4.83;67.24
21706;BME280;11014;53.076;18.208;2023-12-28T00:33:32;101396.94;;;4.82;67.03
21706;BME280;11014;53.076;18.208;2023-12-28T00:36:26;101385.63;;;4.88;67.20
21706;BME280;11014;53.076;18.208;2023-12-28T00:39:09;101374.03;;;4.81;66.83
21706;BME280;11014;53.076;18.208;2023-12-28T00:41:38;101370.69;;;4.78;66.94
21706;BME280;11014;53.076;18.208;2023-12-28T00:47:30;101360.03;;;4.78;67.02
21706;BME280;11014;53.076;18.208;2023-12-28T00:50:00;101362.06;;;4.76;66.70
21706;BME280;11014;53.076;18.208;2023-12-28T00:52:29;101351.75;;;4.73;67.08
21706;BME280;11014;53.076;18.208;2023-12-28T00:54:58;101342.13;;;4.72;67.00
21706;BME280;11014;53.076;18.208;2023-12-28T00:57:27;101330.47;;;4.73;67.39
21706;BME280;11014;53.076;18.208;2023-12-28T01:00:01;101331.28;;;4.74;67.29
21706;BME280;11014;53.076;18.208;2023-12-28T01:05:53;101341.34;;;4.87;67.51
21706;BME280;11014;53.076;18.208;2023-12-28T01:08:22;101338.69;;;4.87;67.22
21706;BME280;11014;53.076;18.208;2023-12-28T01:10:54;101327.69;;;4.90;67.45
21706;BME280;11014;53.076;18.208;2023-12-28T01:13:27;101312.38;;;5.14;67.25
21706;BME280;11014;53.076;18.208;2023-12-28T01:15:58;101305.88;;;4.94;66.96
21706;BME280;11014;53.076;18.208;2023-12-28T01:18:27;101296.78;;;4.89;67.21
21706;BME280;11014;53.076;18.208;2023-12-28T01:21:00;101297.13;;;4.86;67.23
21706;BME280;11014;53.076;18.208;2023-12-28T01:23:32;101298.13;;;4.85;67.82
21706;BME280;11014;53.076;18.208;2023-12-28T01:26:17;101287.31;;;4.86;67.78
21706;BME280;11014;53.076;18.208;2023-12-28T01:28:50;101288.13;;;4.87;67.47
21706;BME280;11014;53.076;18.208;2023-12-28T01:31:19;101280.13;;;4.87;67.62
21706;BME280;11014;53.076;18.208;2023-12-28T01:33:48;101284.47;;;4.88;67.47
21706;BME280;11014;53.076;18.208;2023-12-28T01:36:17;101296.59;;;4.90;67.72
21706;BME280;11014;53.076;18.208;2023-12-28T01:38:49;101293.56;;;4.93;67.63
21706;BME280;11014;53.076;18.208;2023-12-28T01:41:19;101299.38;;;4.97;67.68
21706;BME280;11014;53.076;18.208;2023-12-28T01:43:48;101299.03;;;5.00;67.75
21706;BME280;11014;53.076;18.208;2023-12-28T01:46:18;101291.50;;;5.03;67.60
21706;BME280;11014;53.076;18.208;2023-12-28T01:48:50;101273.69;;;5.04;67.77
21706;BME280;11014;53.076;18.208;2023-12-28T01:51:44;101266.47;;;5.12;67.78
21706;BME280;11014;53.076;18.208;2023-12-28T01:54:13;101244.25;;;5.05;67.58
21706;BME280;11014;53.076;18.208;2023-12-28T01:56:44;101234.75;;;5.03;67.47
21706;BME280;11014;53.076;18.208;2023-12-28T01:59:16;101243.41;;;5.05;67.49
21706;BME280;11014;53.076;18.208;2023-12-28T02:01:54;101226.75;;;5.03;67.50
21706;BME280;11014;53.076;18.208;2023-12-28T02:04:29;101223.28;;;5.02;67.51
21706;BME280;11014;53.076;18.208;2023-12-28T02:07:00;101218.75;;;5.03;67.54
21706;BME280;11014;53.076;18.208;2023-12-28T02:09:29;101210.16;;;5.01;67.33
21706;BME280;11014;53.076;18.208;2023-12-28T02:11:57;101210.97;;;5.01;67.71
21706;BME280;11014;53.076;18.208;2023-12-28T02:14:59;101201.44;;;5.07;67.86
21706;BME280;11014;53.076;18.208;2023-12-28T02:20:19;101181.13;;;5.06;67.37
21706;BME280;11014;53.076;18.208;2023-12-28T02:22:51;101173.00;;;5.07;67.61
21706;BME280;11014;53.076;18.208;2023-12-28T02:25:21;101169.28;;;5.08;67.71
21706;BME280;11014;53.076;18.208;2023-12-28T02:27:49;101163.16;;;5.08;67.74
21706;BME280;11014;53.076;18.208;2023-12-28T02:30:23;101148.81;;;5.09;67.63
21706;BME280;11014;53.076;18.208;2023-12-28T02:33:10;101148.09;;;5.15;67.82
21706;BME280;11014;53.076;18.208;2023-12-28T02:38:29;101137.81;;;5.12;67.39
21706;BME280;11014;53.076;18.208;2023-12-28T02:40:59;101121.84;;;5.12;67.71
21706;BME280;11014;53.076;18.208;2023-12-28T02:43:29;101118.19;;;5.13;67.79
21706;BME280;11014;53.076;18.208;2023-12-28T02:45:58;101111.81;;;5.14;67.73
21706;BME280;11014;53.076;18.208;2023-12-28T02:48:26;101105.50;;;5.15;67.62
21706;BME280;11014;53.076;18.208;2023-12-28T02:50:55;101100.16;;;5.15;67.85
21706;BME280;11014;53.076;18.208;2023-12-28T02:53:24;101091.19;;;5.16;67.54
21706;BME280;11014;53.076;18.208;2023-12-28T02:55:52;101076.84;;;5.17;67.62
21706;BME280;11014;53.076;18.208;2023-12-28T02:58:21;101070.50;;;5.18;67.83
21706;BME280;11014;53.076;18.208;2023-12-28T03:00:50;101055.38;;;5.18;67.67
21706;BME280;11014;53.076;18.208;2023-12-28T03:03:19;101041.84;;;5.20;67.68
21706;BME280;11014;53.076;18.208;2023-12-28T03:05:49;101039.19;;;5.20;67.86
21706;BME280;11014;53.076;18.208;2023-12-28T03:08:17;101028.53;;;5.20;67.77
21706;BME280;11014;53.076;18.208;2023-12-28T03:10:46;101031.03;;;5.21;67.49
21706;BME280;11014;53.076;18.208;2023-12-28T03:13:15;101027.34;;;5.22;67.72
21706;BME280;11014;53.076;18.208;2023-12-28T03:15:43;101013.19;;;5.22;67.75
21706;BME280;11014;53.076;18.208;2023-12-28T03:18:13;101008.91;;;5.21;67.91
21706;BME280;11014;53.076;18.208;2023-12-28T03:20:42;101008.91;;;5.21;67.60
21706;BME280;11014;53.076;18.208;2023-12-28T03:23:11;101001.91;;;5.20;67.59
21706;BME280;11014;53.076;18.208;2023-12-28T03:25:41;101001.91;;;5.20;67.75
21706;BME280;11014;53.076;18.208;2023-12-28T03:28:09;100986.97;;;5.19;67.79
21706;BME280;11014;53.076;18.208;2023-12-28T03:30:39;100982.25;;;5.21;67.48
21706;BME280;11014;53.076;18.208;2023-12-28T03:33:08;100973.25;;;5.22;67.74
21706;BME280;11014;53.076;18.208;2023-12-28T03:35:36;100974.91;;;5.23;67.78
21706;BME280;11014;53.076;18.208;2023-12-28T03:38:05;100976.56;;;5.24;67.54
21706;BME280;11014;53.076;18.208;2023-12-28T03:40:35;100970.03;;;5.26;67.55
21706;BME280;11014;53.076;18.208;2023-12-28T03:43:03;100978.19;;;5.25;67.55
21706;BME280;11014;53.076;18.208;2023-12-28T03:45:32;100975.38;;;5.26;67.88
21706;BME280;11014;53.076;18.208;2023-12-28T03:48:00;100971.66;;;5.27;67.79
21706;BME280;11014;53.076;18.208;2023-12-28T03:50:30;100968.84;;;5.29;67.79
21706;BME280;11014;53.076;18.208;2023-12-28T03:52:58;100980.94;;;5.31;67.91
21706;BME280;11014;53.076;18.208;2023-12-28T03:55:27;100986.06;;;5.33;67.79
21706;BME280;11014;53.076;18.208;2023-12-28T03:57:56;100976.09;;;5.35;67.54
21706;BME280;11014;53.076;18.208;2023-12-28T04:00:25;100962.75;;;5.35;67.69
21706;BME280;11014;53.076;18.208;2023-12-28T04:02:53;100959.06;;;5.36;67.57
21706;BME280;11014;53.076;18.208;2023-12-28T04:05:23;100948.25;;;5.37;67.49
21706;BME280;11014;53.076;18.208;2023-12-28T04:07:51;100939.41;;;5.37;67.72
21706;BME280;11014;53.076;18.208;2023-12-28T04:10:29;100940.69;;;5.41;67.56
21706;BME280;11014;53.076;18.208;2023-12-28T04:12:59;100925.09;;;5.38;67.27
21706;BME280;11014;53.076;18.208;2023-12-28T04:15:29;100919.78;;;5.38;67.62
21706;BME280;11014;53.076;18.208;2023-12-28T04:17:58;100905.41;;;5.39;67.63
21706;BME280;11014;53.076;18.208;2023-12-28T04:20:29;100901.38;;;5.43;67.55
21706;BME280;11014;53.076;18.208;2023-12-28T04:22:57;100896.66;;;5.45;67.48
21706;BME280;11014;53.076;18.208;2023-12-28T04:25:26;100886.22;;;5.44;67.90
21706;BME280;11014;53.076;18.208;2023-12-28T04:27:54;100906.31;;;5.46;67.73
21706;BME280;11014;53.076;18.208;2023-12-28T04:30:23;100907.97;;;5.47;67.65
21706;BME280;11014;53.076;18.208;2023-12-28T04:32:55;100899.59;;;5.50;67.80
21706;BME280;11014;53.076;18.208;2023-12-28T04:35:25;100888.94;;;5.50;67.58
21706;BME280;11014;53.076;18.208;2023-12-28T04:37:54;100884.63;;;5.49;67.83
21706;BME280;11014;53.076;18.208;2023-12-28T04:40:23;100872.94;;;5.50;67.58
21706;BME280;11014;53.076;18.208;2023-12-28T04:42:52;100859.63;;;5.50;67.50
21706;BME280;11014;53.076;18.208;2023-12-28T04:45:21;100842.00;;;5.49;67.67
21706;BME280;11014;53.076;18.208;2023-12-28T04:47:50;100858.00;;;5.49;67.75
21706;BME280;11014;53.076;18.208;2023-12-28T04:50:19;100860.84;;;5.48;67.86
21706;BME280;11014;53.076;18.208;2023-12-28T04:52:49;100866.63;;;5.51;67.93
21706;BME280;11014;53.076;18.208;2023-12-28T04:55:18;100871.09;;;5.51;67.86
21706;BME280;11014;53.076;18.208;2023-12-28T04:57:47;100866.63;;;5.51;67.67
21706;BME280;11014;53.076;18.208;2023-12-28T05:00:18;100876.00;;;5.47;68.06
21706;BME280;11014;53.076;18.208;2023-12-28T05:02:49;100885.44;;;5.50;68.03
21706;BME280;11014;53.076;18.208;2023-12-28T05:05:18;100872.94;;;5.50;67.91
21706;BME280;11014;53.076;18.208;2023-12-28T05:07:46;100866.00;;;5.49;67.71
21706;BME280;11014;53.076;18.208;2023-12-28T05:10:15;100872.94;;;5.50;67.85
21706;BME280;11014;53.076;18.208;2023-12-28T05:12:43;100859.63;;;5.50;68.14
21706;BME280;11014;53.076;18.208;2023-12-28T05:15:12;100853.91;;;5.53;68.16
21706;BME280;11014;53.076;18.208;2023-12-28T05:17:41;100858.25;;;5.54;68.14
21706;BME280;11014;53.076;18.208;2023-12-28T05:20:10;100851.88;;;5.55;68.20
21706;BME280;11014;53.076;18.208;2023-12-28T05:22:39;100839.97;;;5.51;68.28
21706;BME280;11014;53.076;18.208;2023-12-28T05:25:07;100843.75;;;5.63;68.08
21706;BME280;11014;53.076;18.208;2023-12-28T05:27:36;100837.19;;;5.66;68.05
21706;BME280;11014;53.076;18.208;2023-12-28T05:30:06;100837.25;;;5.72;68.10
21706;BME280;11014;53.076;18.208;2023-12-28T05:32:41;100836.09;;;5.81;68.04
21706;BME280;11014;53.076;18.208;2023-12-28T05:35:10;100845.00;;;5.88;67.92
21706;BME280;11014;53.076;18.208;2023-12-28T05:37:38;100833.78;;;6.00;68.12
21706;BME280;11014;53.076;18.208;2023-12-28T05:40:07;100835.47;;;6.07;68.02
21706;BME280;11014;53.076;18.208;2023-12-28T05:42:38;100826.31;;;6.16;67.94
21706;BME280;11014;53.076;18.208;2023-12-28T05:45:07;100833.13;;;6.25;67.67
21706;BME280;11014;53.076;18.208;2023-12-28T05:47:35;100837.88;;;6.30;67.50
21706;BME280;11014;53.076;18.208;2023-12-28T05:50:04;100834.44;;;6.36;67.49
21706;BME280;11014;53.076;18.208;2023-12-28T05:52:34;100810.63;;;6.41;67.21
21706;BME280;11014;53.076;18.208;2023-12-28T05:55:03;100815.56;;;6.44;67.24
21706;BME280;11014;53.076;18.208;2023-12-28T05:57:32;100824.63;;;6.49;67.38
21706;BME280;11014;53.076;18.208;2023-12-28T06:00:01;100817.63;;;6.48;67.28
21706;BME280;11014;53.076;18.208;2023-12-28T06:02:39;100818.91;;;6.59;67.26
21706;BME280;11014;53.076;18.208;2023-12-28T06:05:08;100823.03;;;6.62;66.85
21706;BME280;11014;53.076;18.208;2023-12-28T06:07:38;100819.78;;;6.66;66.87
21706;BME280;11014;53.076;18.208;2023-12-28T06:10:07;100810.31;;;6.70;66.89
21706;BME280;11014;53.076;18.208;2023-12-28T06:12:35;100795.16;;;6.77;66.89
21706;BME280;11014;53.076;18.208;2023-12-28T06:15:05;100798.88;;;6.83;66.47
21706;BME280;11014;53.076;18.208;2023-12-28T06:17:34;100800.94;;;6.87;66.68
21706;BME280;11014;53.076;18.208;2023-12-28T06:20:03;100795.59;;;6.87;66.65
21706;BME280;11014;53.076;18.208;2023-12-28T06:22:32;100794.78;;;6.93;66.61
21706;BME280;11014;53.076;18.208;2023-12-28T06:25:01;100803.41;;;6.95;65.95
21706;BME280;11014;53.076;18.208;2023-12-28T06:27:30;100798.28;;;7.00;66.22
21706;BME280;11014;53.076;18.208;2023-12-28T06:29:59;100809.59;;;7.02;66.16
21706;BME280;11014;53.076;18.208;2023-12-28T06:32:27;100808.16;;;7.06;65.72
21706;BME280;11014;53.076;18.208;2023-12-28T06:34:58;100820.28;;;7.09;65.62
21706;BME280;11014;53.076;18.208;2023-12-28T06:37:27;100812.88;;;7.11;65.66
21706;BME280;11014;53.076;18.208;2023-12-28T06:39:56;100815.19;;;7.21;65.44
21706;BME280;11014;53.076;18.208;2023-12-28T06:42:24;100808.38;;;7.25;65.69
21706;BME280;11014;53.076;18.208;2023-12-28T06:44:53;100805.09;;;7.23;65.16
21706;BME280;11014;53.076;18.208;2023-12-28T06:47:21;100814.56;;;7.32;65.56
21706;BME280;11014;53.076;18.208;2023-12-28T06:49:50;100821.97;;;7.36;65.37
21706;BME280;11014;53.076;18.208;2023-12-28T07:03:42;100849.13;;;7.59;64.63
21706;BME280;11014;53.076;18.208;2023-12-28T07:07:50;100855.72;;;7.70;64.62
21706;BME280;11014;53.076;18.208;2023-12-28T07:10:18;100856.72;;;7.69;64.83
21706;BME280;11014;53.076;18.208;2023-12-28T07:12:47;100853.63;;;7.65;64.52
21706;BME280;11014;53.076;18.208;2023-12-28T07:15:15;100860.22;;;7.69;64.79
21706;BME280;11014;53.076;18.208;2023-12-28T07:17:44;100859.59;;;7.74;65.17
21706;BME280;11014;53.076;18.208;2023-12-28T07:20:13;100867.63;;;7.74;65.21
21706;BME280;11014;53.076;18.208;2023-12-28T07:22:41;100864.34;;;7.79;65.20
21706;BME280;11014;53.076;18.208;2023-12-28T07:25:10;100868.25;;;7.83;65.52
21706;BME280;11014;53.076;18.208;2023-12-28T07:27:39;100867.41;;;7.82;65.76
21706;BME280;11014;53.076;18.208;2023-12-28T07:30:08;100865.56;;;7.89;65.63
21706;BME280;11014;53.076;18.208;2023-12-28T07:32:37;100873.81;;;7.94;66.04
21706;BME280;11014;53.076;18.208;2023-12-28T07:35:06;100879.97;;;7.95;65.96
21706;BME280;11014;53.076;18.208;2023-12-28T07:37:34;100882.63;;;8.01;66.01
21706;BME280;11014;53.076;18.208;2023-12-28T07:40:03;100887.38;;;8.06;66.47
21706;BME280;11014;53.076;18.208;2023-12-28T07:42:32;100883.69;;;8.00;66.91
21706;BME280;11014;53.076;18.208;2023-12-28T07:45:01;100885.72;;;8.05;67.04
21706;BME280;11014;53.076;18.208;2023-12-28T07:47:30;100882.41;;;8.16;66.93
21706;BME280;11014;53.076;18.208;2023-12-28T07:49:59;100884.88;;;8.17;66.93
21706;BME280;11014;53.076;18.208;2023-12-28T07:52:29;100887.13;;;8.20;67.13
21706;BME280;11014;53.076;18.208;2023-12-28T07:54:57;100879.56;;;8.30;66.82
21706;BME280;11014;53.076;18.208;2023-12-28T07:57:27;100876.66;;;8.32;66.65
21706;BME280;11014;53.076;18.208;2023-12-28T07:59:56;100890.44;;;8.36;66.74
21706;BME280;11014;53.076;18.208;2023-12-28T08:02:25;100892.72;;;8.39;67.06
21706;BME280;11014;53.076;18.208;2023-12-28T08:04:54;100891.66;;;8.40;66.79
21706;BME280;11014;53.076;18.208;2023-12-28T08:07:22;100895.16;;;8.40;67.42
21706;BME280;11014;53.076;18.208;2023-12-28T08:09:51;100888.97;;;8.40;67.46
21706;BME280;11014;53.076;18.208;2023-12-28T08:12:20;100897.84;;;8.47;67.48
21706;BME280;11014;53.076;18.208;2023-12-28T08:14:50;100905.41;;;8.56;67.23
21706;BME280;11014;53.076;18.208;2023-12-28T08:17:18;100904.16;;;8.59;67.27
21706;BME280;11014;53.076;18.208;2023-12-28T08:19:47;100915.69;;;8.66;67.19
21706;BME280;11014;53.076;18.208;2023-12-28T08:22:15;100910.94;;;8.68;67.60
21706;BME280;11014;53.076;18.208;2023-12-28T08:24:44;100911.91;;;8.80;67.50
21706;BME280;11014;53.076;18.208;2023-12-28T08:27:12;100917.25;;;8.86;67.65
21706;BME280;11014;53.076;18.208;2023-12-28T08:29:41;100922.38;;;8.94;67.20
21706;BME280;11014;53.076;18.208;2023-12-28T08:32:13;100919.94;;;8.93;67.51
21706;BME280;11014;53.076;18.208;2023-12-28T08:34:43;100910.22;;;8.99;67.74
21706;BME280;11014;53.076;18.208;2023-12-28T08:37:11;100910.97;;;9.12;67.37
21706;BME280;11014;53.076;18.208;2023-12-28T08:39:40;100910.09;;;9.18;67.20
21706;BME280;11014;53.076;18.208;2023-12-28T08:42:08;100904.94;;;9.23;67.47
21706;BME280;11014;53.076;18.208;2023-12-28T08:44:37;100905.53;;;9.25;67.59
21706;BME280;11014;53.076;18.208;2023-12-28T08:47:06;100918.88;;;9.38;67.35
21706;BME280;11014;53.076;18.208;2023-12-28T08:49:35;100919.84;;;9.50;67.26
21706;BME280;11014;53.076;18.208;2023-12-28T08:52:03;100908.66;;;9.53;67.31
21706;BME280;11014;53.076;18.208;2023-12-28T08:54:32;100918.19;;;9.49;67.49
21706;BME280;11014;53.076;18.208;2023-12-28T08:57:01;100925.19;;;9.50;67.92
21706;BME280;11014;53.076;18.208;2023-12-28T08:59:29;100929.25;;;9.60;67.85
21706;BME280;11014;53.076;18.208;2023-12-28T09:01:58;100923.03;;;9.66;67.42
21706;BME280;11014;53.076;18.208;2023-12-28T09:04:27;100921.38;;;9.65;67.85
21706;BME280;11014;53.076;18.208;2023-12-28T09:06:55;100928.38;;;9.66;67.98
21706;BME280;11014;53.076;18.208;2023-12-28T09:09:24;100921.38;;;9.65;68.22
21706;BME280;11014;53.076;18.208;2023-12-28T09:11:52;100927.69;;;9.77;68.06
21706;BME280;11014;53.076;18.208;2023-12-28T09:14:21;100914.59;;;9.87;67.96
21706;BME280;11014;53.076;18.208;2023-12-28T09:16:49;100910.47;;;9.91;68.07
21706;BME280;11014;53.076;18.208;2023-12-28T09:19:18;100909.59;;;9.97;67.97
21706;BME280;11014;53.076;18.208;2023-12-28T09:21:46;100914.97;;;9.97;68.04
21706;BME280;11014;53.076;18.208;2023-12-28T09:24:15;100913.31;;;9.96;67.99
21706;BME280;11014;53.076;18.208;2023-12-28T09:26:46;100914.84;;;10.10;68.13
21706;BME280;11014;53.076;18.208;2023-12-28T09:29:15;100908.16;;;10.19;68.08
21706;BME280;11014;53.076;18.208;2023-12-28T09:31:45;100919.53;;;10.21;67.92
21706;BME280;11014;53.076;18.208;2023-12-28T09:34:15;100909.53;;;10.28;67.99
21706;BME280;11014;53.076;18.208;2023-12-28T09:36:45;100915.44;;;10.37;67.77
21706;BME280;11014;53.076;18.208;2023-12-28T09:39:14;100916.66;;;10.41;67.67
21706;BME280;11014;53.076;18.208;2023-12-28T09:41:46;100920.66;;;10.50;67.58
21706;BME280;11014;53.076;18.208;2023-12-28T09:44:17;100904.94;;;10.53;67.07
21706;BME280;11014;53.076;18.208;2023-12-28T09:46:47;100907.56;;;10.60;67.23
21706;BME280;11014;53.076;18.208;2023-12-28T09:49:16;100911.03;;;10.60;66.85
21706;BME280;11014;53.076;18.208;2023-12-28T09:51:46;100923.97;;;10.70;66.82
21706;BME280;11014;53.076;18.208;2023-12-28T09:54:15;100924.50;;;10.79;66.79
21706;BME280;11014;53.076;18.208;2023-12-28T09:56:45;100928.59;;;10.81;66.31
21706;BME280;11014;53.076;18.208;2023-12-28T09:59:15;100919.84;;;10.86;66.13
21706;BME280;11014;53.076;18.208;2023-12-28T10:01:45;100916.88;;;10.94;66.15
21706;BME280;11014;53.076;18.208;2023-12-28T10:04:15;100915.53;;;11.03;65.59
21706;BME280;11014;53.076;18.208;2023-12-28T10:06:44;100914.63;;;11.09;65.29
21706;BME280;11014;53.076;18.208;2023-12-28T10:09:14;100918.28;;;11.14;65.17
21706;BME280;11014;53.076;18.208;2023-12-28T10:11:42;100924.81;;;11.18;65.26
21706;BME280;11014;53.076;18.208;2023-12-28T10:14:11;100928.91;;;11.21;64.89
21706;BME280;11014;53.076;18.208;2023-12-28T10:16:41;100919.38;;;11.25;64.71
21706;BME280;11014;53.076;18.208;2023-12-28T10:19:10;100918.47;;;11.31;64.53
21706;BME280;11014;53.076;18.208;2023-12-28T10:21:39;100914.00;;;11.25;64.40
21706;BME280;11014;53.076;18.208;2023-12-28T10:24:10;100917.84;;;11.29;64.27
21706;BME280;11014;53.076;18.208;2023-12-28T10:26:38;100907.72;;;11.31;63.97
21706;BME280;11014;53.076;18.208;2023-12-28T10:29:07;100902.22;;;11.38;63.49
21706;BME280;11014;53.076;18.208;2023-12-28T10:31:41;100910.66;;;11.41;63.50
21706;BME280;11014;53.076;18.208;2023-12-28T10:34:11;100892.75;;;11.35;63.63
21706;BME280;11014;53.076;18.208;2023-12-28T10:36:40;100894.84;;;11.33;63.35
21706;BME280;11014;53.076;18.208;2023-12-28T10:39:11;100894.00;;;11.32;63.40
21706;BME280;11014;53.076;18.208;2023-12-28T10:41:44;100900.22;;;11.33;63.16
21706;BME280;11014;53.076;18.208;2023-12-28T10:44:20;100892.28;;;11.38;63.04
21706;BME280;11014;53.076;18.208;2023-12-28T10:46:55;100892.38;;;11.31;62.81
21706;BME280;11014;53.076;18.208;2023-12-28T10:49:26;100899.78;;;11.36;63.00
21706;BME280;11014;53.076;18.208;2023-12-28T10:51:55;100905.59;;;11.33;62.56
21706;BME280;11014;53.076;18.208;2023-12-28T10:54:41;100918.72;;;11.41;62.83
21706;BME280;11014;53.076;18.208;2023-12-28T10:57:23;100900.59;;;11.48;62.52
21706;BME280;11014;53.076;18.208;2023-12-28T11:00:05;100899.13;;;11.52;62.62
21706;BME280;11014;53.076;18.208;2023-12-28T11:02:44;100908.09;;;11.46;62.34
21706;BME280;11014;53.076;18.208;2023-12-28T11:05:15;100909.75;;;11.47;61.98
21706;BME280;11014;53.076;18.208;2023-12-28T11:07:47;100916.28;;;11.51;61.96
21706;BME280;11014;53.076;18.208;2023-12-28T11:10:17;100906.72;;;11.55;61.95
21706;BME280;11014;53.076;18.208;2023-12-28T11:12:48;100906.59;;;11.62;61.80
21706;BME280;11014;53.076;18.208;2023-12-28T11:15:17;100898.91;;;11.65;61.99
21706;BME280;11014;53.076;18.208;2023-12-28T11:17:47;100902.31;;;11.61;61.41
21706;BME280;11014;53.076;18.208;2023-12-28T11:20:17;100895.63;;;11.63;61.57
21706;BME280;11014;53.076;18.208;2023-12-28T11:22:45;100898.91;;;11.65;61.18
21706;BME280;11014;53.076;18.208;2023-12-28T11:25:16;100894.72;;;11.69;61.03
21706;BME280;11014;53.076;18.208;2023-12-28T11:27:45;100896.38;;;11.70;60.97
21706;BME280;11014;53.076;18.208;2023-12-28T11:30:17;100884.91;;;11.75;60.99
21706;BME280;11014;53.076;18.208;2023-12-28T11:32:46;100888.66;;;11.74;60.80
21706;BME280;11014;53.076;18.208;2023-12-28T11:35:15;100880.97;;;11.77;60.63
21706;BME280;11014;53.076;18.208;2023-12-28T11:37:46;100886.34;;;11.77;60.36
21706;BME280;11014;53.076;18.208;2023-12-28T11:40:46;100879.19;;;11.83;60.29
21706;BME280;11014;53.076;18.208;2023-12-28T11:43:21;100879.31;;;11.76;60.30
21706;BME280;11014;53.076;18.208;2023-12-28T11:45:56;100871.44;;;11.75;60.38
21706;BME280;11014;53.076;18.208;2023-12-28T11:48:27;100865.41;;;11.79;60.17
21706;BME280;11014;53.076;18.208;2023-12-28T11:51:00;100865.03;;;11.87;60.03
21706;BME280;11014;53.076;18.208;2023-12-28T11:53:29;100867.00;;;11.80;59.64
21706;BME280;11014;53.076;18.208;2023-12-28T11:56:02;100869.97;;;11.91;59.86
21706;BME280;11014;53.076;18.208;2023-12-28T11:58:31;100868.22;;;11.96;59.32
21706;BME280;11014;53.076;18.208;2023-12-28T12:01:04;100865.41;;;12.03;59.25
21706;BME280;11014;53.076;18.208;2023-12-28T12:03:33;100866.94;;;11.99;59.45
21706;BME280;11014;53.076;18.208;2023-12-28T12:06:02;100861.78;;;12.09;59.22
21706;BME280;11014;53.076;18.208;2023-12-28T12:08:31;100869.72;;;12.04;58.94
21706;BME280;11014;53.076;18.208;2023-12-28T12:11:06;100862.00;;;12.19;58.99
21706;BME280;11014;53.076;18.208;2023-12-28T12:13:35;100863.19;;;12.23;58.88
21706;BME280;11014;53.076;18.208;2023-12-28T12:16:05;100862.72;;;12.26;58.83
21706;BME280;11014;53.076;18.208;2023-12-28T12:18:35;100863.66;;;12.31;58.75
21706;BME280;11014;53.076;18.208;2023-12-28T12:21:05;100854.72;;;12.31;58.35
21706;BME280;11014;53.076;18.208;2023-12-28T12:23:34;100848.16;;;12.27;58.71
21706;BME280;11014;53.076;18.208;2023-12-28T12:26:06;100852.03;;;12.31;58.43
21706;BME280;11014;53.076;18.208;2023-12-28T12:28:35;100862.00;;;12.42;58.20
21706;BME280;11014;53.076;18.208;2023-12-28T12:31:04;100850.94;;;12.55;57.97
21706;BME280;11014;53.076;18.208;2023-12-28T12:33:33;100853.47;;;12.73;57.95
21706;BME280;11014;53.076;18.208;2023-12-28T12:36:02;100843.47;;;12.85;57.08
21706;BME280;11014;53.076;18.208;2023-12-28T12:38:32;100846.38;;;12.95;56.75
21706;BME280;11014;53.076;18.208;2023-12-28T12:41:02;100842.78;;;13.18;56.63
21706;BME280;11014;53.076;18.208;2023-12-28T12:43:31;100856.78;;;13.32;55.95
21706;BME280;11014;53.076;18.208;2023-12-28T12:46:00;100846.69;;;13.55;55.32
21706;BME280;11014;53.076;18.208;2023-12-28T12:48:28;100856.84;;;13.82;54.70
21706;BME280;11014;53.076;18.208;2023-12-28T12:50:57;100859.94;;;14.07;53.90
21706;BME280;11014;53.076;18.208;2023-12-28T12:53:32;100845.69;;;14.11;53.72
21706;BME280;11014;53.076;18.208;2023-12-28T12:56:03;100863.06;;;13.99;53.74
21706;BME280;11014;53.076;18.208;2023-12-28T12:58:32;100862.34;;;14.42;53.25
21706;BME280;11014;53.076;18.208;2023-12-28T13:01:05;100857.28;;;14.89;52.20
21706;BME280;11014;53.076;18.208;2023-12-28T13:03:35;100869.44;;;15.13;51.35
21706;BME280;11014;53.076;18.208;2023-12-28T13:06:04;100860.00;;;15.15;50.67
21706;BME280;11014;53.076;18.208;2023-12-28T13:08:33;100864.44;;;15.26;50.55
21706;BME280;11014;53.076;18.208;2023-12-28T13:11:02;100848.00;;;15.06;50.81
21706;BME280;11014;53.076;18.208;2023-12-28T13:13:30;100853.81;;;15.20;50.95
21706;BME280;11014;53.076;18.208;2023-12-28T13:15:59;100862.06;;;15.30;50.87
21706;BME280;11014;53.076;18.208;2023-12-28T13:18:30;100854.34;;;15.43;50.22
21706;BME280;11014;53.076;18.208;2023-12-28T13:25:59;100844.91;;;15.78;48.74
21706;BME280;11014;53.076;18.208;2023-12-28T13:28:28;100849.94;;;15.37;49.82
21706;BME280;11014;53.076;18.208;2023-12-28T13:30:56;100854.81;;;14.87;50.44
21706;BME280;11014;53.076;18.208;2023-12-28T13:33:26;100854.50;;;14.62;51.06
21706;BME280;11014;53.076;18.208;2023-12-28T13:35:54;100855.38;;;14.67;51.26
21706;BME280;11014;53.076;18.208;2023-12-28T13:38:23;100853.06;;;14.76;51.17